Time;durP1;ratioP1;P1;durP2;ratioP2;P2;SDS_P1;SDS_P2;PMS_P1;PMS_P2;Temp;Humidity;BMP_temperature;BMP_pressure;BME280_temperature;BME280_humidity;BME280_pressure;Samples;Min_cycle;Max_cycle;Signal;HPM_P1;HPM_P2
2024/04/15 00:01:06;;;;;;;6.45;4.20;;;;;;;19.00;54.43;100096.97;5422637;26;20057;-63
2024/04/15 00:03:32;;;;;;;5.05;3.53;;;;;;;18.87;55.77;100099.66;5421469;26;20006;-64
2024/04/15 00:05:59;;;;;;;6.00;4.72;;;;;;;18.78;56.26;100097.19;5421040;26;20231;-63
2024/04/15 00:08:24;;;;;;;6.90;3.83;;;;;;;18.85;55.69;100099.03;5421547;26;20352;-62
2024/04/15 00:10:51;;;;;;;5.18;3.72;;;;;;;18.85;55.29;100093.69;5421715;26;20102;-63
2024/04/15 00:13:17;;;;;;;4.32;3.17;;;;;;;18.82;55.10;100092.25;5422052;26;20007;-63
2024/04/15 00:15:54;;;;;;;5.25;4.00;;;;;;;18.76;55.23;100093.06;5421268;26;19988;-63
2024/04/15 00:18:20;;;;;;;4.97;3.90;;;;;;;18.69;55.05;100094.88;5421481;26;20549;-63
2024/04/15 00:20:46;;;;;;;5.35;3.25;;;;;;;18.46;55.73;100096.09;5420846;26;20458;-63
2024/04/15 00:23:12;;;;;;;6.88;4.07;;;;;;;18.42;56.38;100097.53;5421521;26;20284;-63
2024/04/15 00:25:38;;;;;;;4.75;4.15;;;;;;;18.37;56.43;100096.47;5420963;26;20011;-63
2024/04/15 00:28:04;;;;;;;5.20;3.95;;;;;;;18.29;56.56;100096.69;5421898;26;19996;-63
2024/04/15 00:30:30;;;;;;;6.55;4.13;;;;;;;18.24;55.89;100093.78;5421447;26;20003;-63
2024/04/15 00:32:56;;;;;;;9.20;4.20;;;;;;;18.04;56.74;100088.38;5422596;26;19988;-63
2024/04/15 00:35:22;;;;;;;8.23;4.47;;;;;;;17.88;57.59;100086.88;5420253;26;20219;-62
2024/04/15 00:37:48;;;;;;;5.63;4.53;;;;;;;17.95;57.82;100092.25;5420661;26;19996;-63
2024/04/15 00:40:14;;;;;;;6.50;3.85;;;;;;;17.89;57.36;100096.56;5422977;26;20044;-63
2024/04/15 00:42:40;;;;;;;6.43;4.28;;;;;;;17.84;56.92;100083.78;5425993;26;19999;-63
2024/04/15 00:45:29;;;;;;;6.30;4.40;;;;;;;17.94;57.37;100082.56;5424704;26;20013;-63
2024/04/15 00:47:56;;;;;;;7.50;4.28;;;;;;;17.99;55.87;100082.78;5419126;26;19992;-63
2024/04/15 00:50:23;;;;;;;4.60;3.88;;;;;;;17.94;56.45;100077.22;5424296;26;20116;-63
2024/04/15 00:52:50;;;;;;;7.93;4.45;;;;;;;17.88;57.12;100076.16;5424835;26;20259;-64
2024/04/15 00:55:16;;;;;;;6.03;4.43;;;;;;;17.79;57.57;100072.00;5423783;26;20003;-63
2024/04/15 00:57:43;;;;;;;5.70;4.18;;;;;;;17.82;58.26;100069.75;5425921;26;20015;-62
2024/04/15 01:00:12;;;;;;;8.13;4.18;;;;;;;17.92;57.86;100079.28;5424522;26;20012;-63
2024/04/15 01:02:39;;;;;;;6.38;4.20;;;;;;;17.80;57.82;100084.38;5423784;26;20156;-63
2024/04/15 01:05:05;;;;;;;7.15;4.90;;;;;;;17.90;58.48;100079.47;5425134;26;20203;-62
2024/04/15 01:07:34;;;;;;;6.80;4.32;;;;;;;17.98;57.56;100086.50;5423967;26;20049;-62
2024/04/15 01:10:01;;;;;;;8.93;4.93;;;;;;;17.95;57.66;100085.06;5424904;26;20053;-63
2024/04/15 01:12:26;;;;;;;7.20;4.22;;;;;;;17.81;57.99;100083.34;5423294;26;19995;-63
2024/04/15 01:14:52;;;;;;;6.65;4.35;;;;;;;17.64;58.48;100090.03;5425558;26;19992;-63
2024/04/15 01:17:18;;;;;;;6.15;4.57;;;;;;;17.60;58.99;100089.59;5422789;26;20106;-62
2024/04/15 01:19:44;;;;;;;6.78;4.45;;;;;;;17.59;59.49;100084.44;5425483;26;20210;-63
2024/04/15 01:22:12;;;;;;;8.10;4.70;;;;;;;17.50;59.79;100083.78;5422644;26;19999;-62
2024/04/15 01:24:38;;;;;;;5.78;4.25;;;;;;;17.48;59.79;100083.16;5424901;26;19995;-62
2024/04/15 01:27:04;;;;;;;6.47;4.45;;;;;;;17.43;60.43;100086.44;5422942;26;20044;-62
2024/04/15 01:29:30;;;;;;;7.10;4.05;;;;;;;17.48;60.88;100086.66;5423934;26;19999;-63
2024/04/15 01:31:56;;;;;;;6.88;4.30;;;;;;;17.63;58.87;100088.38;5423381;26;19991;-63
2024/04/15 01:34:22;;;;;;;8.57;4.68;;;;;;;17.64;57.07;100082.00;5423475;26;19992;-62
2024/04/15 01:36:48;;;;;;;7.05;4.57;;;;;;;17.53;58.85;100075.34;5423436;26;20010;-63
2024/04/15 01:39:14;;;;;;;6.35;4.25;;;;;;;17.40;59.00;100067.25;5423321;26;20077;-63
2024/04/15 01:41:41;;;;;;;6.20;4.63;;;;;;;17.28;59.36;100067.00;5423384;26;20659;-63
2024/04/15 01:44:07;;;;;;;7.80;5.10;;;;;;;17.11;59.87;100069.16;5422308;26;19996;-62
2024/04/15 01:46:33;;;;;;;7.00;4.70;;;;;;;16.81;61.08;100062.38;5424383;26;20022;-63
2024/04/15 01:48:59;;;;;;;5.47;4.10;;;;;;;16.67;61.96;100063.28;5422935;26;19995;-62
2024/04/15 01:51:25;;;;;;;5.95;4.15;;;;;;;16.69;62.06;100066.59;5425001;26;20007;-62
2024/04/15 01:53:51;;;;;;;7.05;4.68;;;;;;;16.74;62.20;100065.00;5423030;26;20023;-63
2024/04/15 01:56:17;;;;;;;5.90;4.13;;;;;;;16.63;60.45;100064.63;5424592;26;20014;-62
2024/04/15 01:58:43;;;;;;;7.07;4.22;;;;;;;16.23;63.18;100070.44;5422655;26;20010;-63
2024/04/15 02:01:09;;;;;;;8.38;4.45;;;;;;;16.05;63.63;100072.72;5424514;26;20008;-63
2024/04/15 02:03:34;;;;;;;6.28;4.93;;;;;;;15.99;62.32;100068.16;5398363;26;19988;-63
2024/04/15 02:06:00;;;;;;;7.03;5.35;;;;;;;15.84;63.36;100065.50;5387923;26;20218;-63
2024/04/15 02:08:26;;;;;;;7.40;4.45;;;;;;;16.04;63.25;100063.06;5407105;26;20203;-63
2024/04/15 02:10:52;;;;;;;7.30;4.35;;;;;;;16.06;62.81;100071.72;5422807;26;19995;-63
2024/04/15 02:13:18;;;;;;;7.38;4.18;;;;;;;16.06;63.75;100074.38;5422901;26;19991;-62
2024/04/15 02:15:44;;;;;;;7.72;4.43;;;;;;;16.25;64.38;100056.91;5422236;26;20090;-63
2024/04/15 02:18:10;;;;;;;7.22;4.57;;;;;;;16.48;64.12;100054.84;5422654;26;20309;-63
2024/04/15 02:20:36;;;;;;;27.90;7.25;;;;;;;16.55;63.21;100057.56;5422027;26;19996;-63
2024/04/15 02:23:02;;;;;;;11.85;5.25;;;;;;;16.77;62.95;100058.44;5423516;26;19995;-63
2024/04/15 02:25:28;;;;;;;9.48;4.40;;;;;;;16.83;61.97;100054.97;5422311;26;20003;-63
2024/04/15 02:27:54;;;;;;;9.77;4.75;;;;;;;16.79;59.85;100056.38;5424312;26;19998;-63
2024/04/15 02:30:20;;;;;;;8.38;4.13;;;;;;;16.81;58.99;100055.16;5421936;26;20209;-63
2024/04/15 02:32:46;;;;;;;7.63;4.90;;;;;;;16.84;60.61;100057.44;5423896;26;20016;-63
2024/04/15 02:35:12;;;;;;;5.88;4.82;;;;;;;16.82;61.84;100056.81;5422012;26;19995;-63
2024/04/15 02:37:38;;;;;;;6.25;4.75;;;;;;;16.72;62.45;100064.34;5426015;26;20094;-63
2024/04/15 02:40:04;;;;;;;8.45;5.47;;;;;;;16.56;62.80;100060.06;5425232;26;20003;-63
2024/04/15 02:42:30;;;;;;;7.97;4.90;;;;;;;16.46;63.24;100059.56;5419556;26;19996;-62
2024/04/15 02:44:56;;;;;;;8.65;5.55;;;;;;;16.52;62.74;100064.13;5426307;26;20026;-64
2024/04/15 02:47:23;;;;;;;8.27;5.18;;;;;;;16.58;63.13;100062.53;5422834;26;20003;-63
2024/04/15 02:49:49;;;;;;;8.38;5.50;;;;;;;16.68;62.71;100067.63;5388789;26;20038;-63
2024/04/15 02:52:15;;;;;;;7.93;5.18;;;;;;;16.74;62.44;100066.84;5396115;26;19995;-63
2024/04/15 02:54:41;;;;;;;10.00;5.50;;;;;;;16.78;61.92;100062.75;5422377;26;19991;-62
2024/04/15 02:57:07;;;;;;;10.15;5.32;;;;;;;16.84;61.63;100064.66;5422424;26;19995;-64
2024/04/15 02:59:33;;;;;;;7.28;4.47;;;;;;;16.72;60.91;100067.03;5422627;26;19994;-63
2024/04/15 03:01:59;;;;;;;9.88;5.47;;;;;;;16.83;60.25;100071.03;5421850;26;19992;-63
2024/04/15 03:04:25;;;;;;;9.57;5.05;;;;;;;16.79;59.65;100067.09;5422700;26;20008;-63
2024/04/15 03:06:54;;;;;;;7.65;5.07;;;;;;;16.82;61.43;100069.38;5424202;26;20203;-63
2024/04/15 03:09:22;;;;;;;8.40;5.22;;;;;;;16.80;60.73;100071.41;5421218;26;20207;-63
2024/04/15 03:11:48;;;;;;;9.20;5.57;;;;;;;16.84;61.86;100070.00;5423361;26;20197;-63
2024/04/15 03:14:14;;;;;;;9.57;5.70;;;;;;;16.85;61.04;100072.47;5422022;26;20307;-63
2024/04/15 03:16:42;;;;;;;7.07;5.05;;;;;;;16.86;60.74;100067.97;5422522;26;20034;-63
2024/04/15 03:19:09;;;;;;;12.88;5.60;;;;;;;16.83;61.40;100068.34;5420821;26;20003;-64
2024/04/15 03:21:35;;;;;;;9.07;5.35;;;;;;;16.86;61.19;100071.47;5422882;26;20006;-63
2024/04/15 03:24:01;;;;;;;7.53;4.88;;;;;;;16.80;60.04;100068.75;5422097;26;20149;-63
2024/04/15 03:26:27;;;;;;;9.15;5.18;;;;;;;16.76;60.26;100057.59;5421374;26;20048;-64
2024/04/15 03:28:53;;;;;;;10.30;5.88;;;;;;;16.79;61.61;100064.41;5422287;26;19999;-64
2024/04/15 03:31:19;;;;;;;11.75;5.72;;;;;;;16.83;61.88;100071.84;5421292;26;20007;-64
2024/04/15 03:33:45;;;;;;;8.68;5.60;;;;;;;16.80;62.22;100068.75;5423047;26;20039;-64
2024/04/15 03:36:12;;;;;;;8.20;5.70;;;;;;;16.71;62.53;100073.41;5421690;26;20078;-65
2024/04/15 03:38:38;;;;;;;7.72;5.57;;;;;;;16.76;62.72;100067.47;5423121;26;19994;-65
2024/04/15 03:41:04;;;;;;;10.05;6.20;;;;;;;16.79;62.10;100067.09;5421971;26;20001;-64
2024/04/15 03:43:30;;;;;;;12.18;8.38;;;;;;;16.69;62.05;100066.59;5423583;26;19999;-64
2024/04/15 03:45:56;;;;;;;15.07;8.75;;;;;;;16.74;61.47;100066.84;5420696;26;20000;-64
2024/04/15 03:48:22;;;;;;;14.40;8.75;;;;;;;16.81;60.90;100071.22;5423742;26;20214;-64
2024/04/15 03:50:48;;;;;;;16.10;8.18;;;;;;;16.70;60.54;100076.28;5420917;26;20568;-64
2024/04/15 03:53:14;;;;;;;12.70;7.10;;;;;;;16.71;60.36;100072.56;5422609;26;20210;-64
2024/04/15 03:55:40;;;;;;;14.27;6.60;;;;;;;16.67;60.52;100073.97;5419975;26;20003;-64
2024/04/15 03:58:06;;;;;;;10.60;6.18;;;;;;;16.43;60.86;100084.00;5421478;26;20003;-64
2024/04/15 04:00:32;;;;;;;11.38;5.55;;;;;;;16.35;61.31;100084.13;5420445;26;19995;-65
2024/04/15 04:02:57;;;;;;;10.63;5.38;;;;;;;16.39;61.23;100077.38;5419765;26;20203;-65
2024/04/15 04:05:23;;;;;;;10.48;5.20;;;;;;;16.42;61.25;100076.16;5422818;26;19995;-61
2024/04/15 04:07:49;;;;;;;15.50;6.10;;;;;;;16.42;61.19;100076.16;5419900;26;19995;-64
2024/04/15 04:10:15;;;;;;;8.00;5.90;;;;;;;16.45;61.39;100083.81;5423113;26;19992;-64
2024/04/15 04:12:41;;;;;;;10.63;5.72;;;;;;;16.38;61.82;100088.25;5420575;26;20000;-64
2024/04/15 04:15:07;;;;;;;10.13;5.55;;;;;;;16.39;61.58;100088.06;5424701;26;20026;-64
2024/04/15 04:17:33;;;;;;;8.85;5.05;;;;;;;16.42;61.98;100089.53;5424793;26;20010;-64
2024/04/15 04:19:59;;;;;;;15.38;5.88;;;;;;;16.46;62.30;100096.97;5424695;26;20116;-63
2024/04/15 04:22:25;;;;;;;10.80;5.18;;;;;;;16.34;63.25;100087.81;5423616;26;20169;-64
2024/04/15 04:24:51;;;;;;;10.38;5.78;;;;;;;16.03;65.13;100090.78;5424481;26;20198;-64
2024/04/15 04:27:17;;;;;;;12.27;6.03;;;;;;;15.75;66.60;100095.19;5424249;26;20006;-64
2024/04/15 04:29:43;;;;;;;16.90;7.18;;;;;;;15.83;65.97;100090.56;5425257;26;20020;-64
2024/04/15 04:32:09;;;;;;;9.50;6.00;;;;;;;15.97;64.63;100094.22;5428799;26;19991;-63
2024/04/15 04:34:35;;;;;;;14.38;6.43;;;;;;;16.11;64.27;100096.00;5460795;26;19991;-64
2024/04/15 04:37:01;;;;;;;11.73;6.25;;;;;;;16.22;64.77;100094.69;5458373;26;19999;-64
2024/04/15 04:39:27;;;;;;;40.88;8.57;;;;;;;16.37;64.37;100089.28;5460402;26;20118;-64
2024/04/15 04:41:53;;;;;;;33.83;8.30;;;;;;;16.49;64.79;100095.78;5460469;26;20135;-63
2024/04/15 04:44:19;;;;;;;16.08;7.10;;;;;;;16.49;64.79;100091.25;5460471;26;19991;-64
2024/04/15 04:46:45;;;;;;;14.60;8.63;;;;;;;16.25;65.02;100087.13;5460576;26;19995;-64
2024/04/15 04:49:12;;;;;;;16.20;12.35;;;;;;;16.34;65.60;100089.66;5449551;26;19995;-64
2024/04/15 04:51:38;;;;;;;18.38;16.55;;;;;;;16.46;65.72;100090.81;5422529;26;20019;-65
2024/04/15 04:54:04;;;;;;;15.48;12.55;;;;;;;16.43;65.57;100089.34;5424522;26;20011;-64
2024/04/15 04:56:30;;;;;;;14.43;12.50;;;;;;;16.57;65.78;100084.94;5424301;26;19995;-64
2024/04/15 04:58:58;;;;;;;13.52;8.23;;;;;;;16.80;64.70;100090.13;5426289;26;19999;-64
2024/04/15 05:01:24;;;;;;;13.63;8.02;;;;;;;16.89;64.49;100091.63;5424489;26;20095;-64
2024/04/15 05:03:50;;;;;;;9.75;6.50;;;;;;;17.01;64.81;100092.75;5425126;26;20007;-64
2024/04/15 05:06:18;;;;;;;12.68;6.80;;;;;;;17.24;63.75;100087.13;5423986;26;19999;-64
2024/04/15 05:08:45;;;;;;;9.93;6.90;;;;;;;17.41;63.72;100084.97;5425847;26;20006;-65
2024/04/15 05:11:11;;;;;;;11.00;6.65;;;;;;;17.63;63.18;100091.03;5423949;26;20056;-65
2024/04/15 05:13:38;;;;;;;11.88;6.22;;;;;;;17.77;61.46;100098.19;5425294;26;19991;-64
2024/04/15 05:16:08;;;;;;;10.43;5.78;;;;;;;18.13;61.56;100093.34;5424385;26;20000;-64
2024/04/15 05:18:35;;;;;;;11.05;7.50;;;;;;;18.40;59.23;100088.84;5424502;26;20011;-65
2024/04/15 05:21:02;;;;;;;12.15;5.95;;;;;;;18.64;58.33;100092.00;5417062;26;19989;-65
2024/04/15 05:23:29;;;;;;;11.13;6.70;;;;;;;18.75;57.82;100086.88;5388760;26;19999;-64
2024/04/15 05:25:56;;;;;;;10.57;6.20;;;;;;;18.89;57.62;100090.38;5400462;26;20011;-64
2024/04/15 05:28:23;;;;;;;9.95;7.63;;;;;;;18.98;57.59;100091.81;5423863;26;20202;-64
2024/04/15 05:30:53;;;;;;;8.98;5.95;;;;;;;19.20;56.73;100092.41;5424635;26;20007;-65
2024/04/15 05:33:20;;;;;;;9.95;7.88;;;;;;;19.46;56.16;100097.69;5423846;26;20003;-62
2024/04/15 05:35:46;;;;;;;8.57;6.30;;;;;;;19.54;55.85;100099.34;5424906;26;20003;-62
2024/04/15 05:38:12;;;;;;;10.60;8.05;;;;;;;19.77;55.26;100094.34;5423944;26;20015;-62
2024/04/15 05:40:38;;;;;;;13.50;6.60;;;;;;;19.87;54.52;100093.06;5425530;26;20002;-63
2024/04/15 05:43:07;;;;;;;11.60;5.68;;;;;;;20.05;54.52;100096.69;5422110;26;20292;-62
2024/04/15 05:45:34;;;;;;;10.18;6.20;;;;;;;20.27;53.98;100089.09;5425113;26;19999;-62
2024/04/15 05:48:00;;;;;;;8.32;6.22;;;;;;;20.46;52.68;100087.34;5423057;26;20203;-61
2024/04/15 05:50:26;;;;;;;7.70;6.72;;;;;;;20.55;53.21;100086.03;5425548;26;19995;-62
2024/04/15 05:52:52;;;;;;;7.93;5.75;;;;;;;20.87;52.03;100086.03;5423020;26;20292;-62
2024/04/15 05:55:18;;;;;;;9.93;5.30;;;;;;;21.20;51.44;100080.31;5422854;26;20103;-62
2024/04/15 05:57:44;;;;;;;7.93;5.82;;;;;;;21.35;50.79;100088.88;5423422;26;20051;-62
2024/04/15 06:00:11;;;;;;;13.05;6.88;;;;;;;21.58;49.50;100083.66;5423381;26;20229;-63
2024/04/15 06:02:37;;;;;;;10.98;6.18;;;;;;;21.72;48.79;100076.22;5422722;26;20165;-62
2024/04/15 06:05:04;;;;;;;12.35;6.20;;;;;;;21.98;49.15;100080.47;5422655;26;20012;-62
2024/04/15 06:07:30;;;;;;;9.18;5.93;;;;;;;22.12;48.68;100079.28;5423687;26;19995;-62
2024/04/15 06:09:56;;;;;;;8.05;5.32;;;;;;;22.41;48.06;100083.00;5423267;26;20006;-63
2024/04/15 06:12:22;;;;;;;9.23;6.50;;;;;;;22.54;47.32;100073.88;5417579;26;20107;-62
2024/04/15 06:14:48;;;;;;;12.88;5.85;;;;;;;22.72;46.97;100076.47;5421770;26;20151;-62
2024/04/15 06:17:14;;;;;;;7.22;6.03;;;;;;;22.87;45.72;100081.44;5423157;26;20004;-62
2024/04/15 06:19:40;;;;;;;7.80;5.72;;;;;;;23.03;46.74;100069.97;5423570;26;19988;-62
2024/04/15 06:22:06;;;;;;;8.20;5.75;;;;;;;23.20;46.25;100070.91;5419826;26;20003;-63
2024/04/15 06:24:32;;;;;;;7.90;5.40;;;;;;;23.31;45.68;100074.63;5421745;26;19991;-63
2024/04/15 06:26:58;;;;;;;8.80;6.65;;;;;;;23.45;44.63;100064.38;5422998;26;20007;-63
2024/04/15 06:29:24;;;;;;;11.23;6.20;;;;;;;23.21;43.77;100061.72;5419315;26;19999;-62
2024/04/15 06:31:54;;;;;;;11.63;6.00;;;;;;;23.34;43.64;100062.53;5423089;26;20007;-63
2024/04/15 06:34:21;;;;;;;8.77;5.38;;;;;;;23.44;42.97;100063.56;5421243;26;19991;-62
2024/04/15 06:36:52;;;;;;;9.25;5.07;;;;;;;23.54;44.12;100061.09;5420779;26;20029;-63
2024/04/15 06:39:18;;;;;;;7.78;4.65;;;;;;;23.54;42.58;100071.06;5421223;26;19996;-62
2024/04/15 06:41:44;;;;;;;6.80;4.72;;;;;;;23.57;42.76;100067.91;5422227;26;19991;-62
2024/04/15 06:44:12;;;;;;;6.72;4.75;;;;;;;23.72;42.80;100060.13;5421814;26;20003;-63
2024/04/15 06:46:38;;;;;;;8.10;6.38;;;;;;;23.74;41.50;100057.16;5421913;26;20037;-62
2024/04/15 06:49:04;;;;;;;7.30;4.85;;;;;;;23.95;41.46;100061.94;5420994;26;20199;-62
2024/04/15 06:51:30;;;;;;;6.90;4.40;;;;;;;24.24;40.91;100065.44;5421517;26;20012;-63
2024/04/15 06:53:56;;;;;;;8.77;5.57;;;;;;;24.50;39.93;100050.50;5422087;26;20012;-63
2024/04/15 06:56:24;;;;;;;7.63;4.53;;;;;;;24.75;39.33;100047.38;5420483;26;20020;-62
2024/04/15 06:58:50;;;;;;;6.72;4.28;;;;;;;24.80;38.93;100047.44;5421597;26;20028;-62
2024/04/15 07:01:16;;;;;;;11.55;5.35;;;;;;;25.01;37.99;100035.06;5421078;26;19991;-62
2024/04/15 07:03:42;;;;;;;5.68;3.85;;;;;;;25.01;38.69;100037.78;5422548;26;20928;-63
2024/04/15 07:06:08;;;;;;;7.68;4.22;;;;;;;25.12;37.40;100034.97;5420445;26;20254;-62
2024/04/15 07:08:34;;;;;;;11.02;4.40;;;;;;;24.94;36.99;100029.78;5423395;26;19995;-62
2024/04/15 07:11:00;;;;;;;7.70;4.53;;;;;;;25.22;37.20;100034.28;5421394;26;19988;-63
2024/04/15 07:13:26;;;;;;;8.38;4.32;;;;;;;25.33;37.26;100030.63;5422417;26;19999;-63
2024/04/15 07:15:52;;;;;;;6.03;5.25;;;;;;;25.37;36.54;100028.25;5420772;26;20006;-62
2024/04/15 07:18:18;;;;;;;7.45;4.70;;;;;;;25.60;36.38;100029.88;5420714;26;19999;-62
2024/04/15 07:20:47;;;;;;;7.50;4.68;;;;;;;25.91;34.66;100023.72;5420533;26;19995;-63
2024/04/15 07:23:13;;;;;;;4.20;3.65;;;;;;;25.90;34.79;100021.28;5421517;26;20007;-63
2024/04/15 07:25:39;;;;;;;5.88;4.32;;;;;;;26.00;34.58;100026.81;5421242;26;20086;-64
2024/04/15 07:28:05;;;;;;;5.22;3.45;;;;;;;26.08;34.36;100018.22;5421143;26;19999;-63
2024/04/15 07:30:31;;;;;;;6.45;3.53;;;;;;;26.06;34.03;100015.78;5422235;26;20222;-63
2024/04/15 07:32:57;;;;;;;6.18;4.05;;;;;;;26.38;33.64;100010.38;5420944;26;20006;-63
2024/04/15 07:35:23;;;;;;;7.72;3.80;;;;;;;26.70;33.24;100013.06;5419495;26;20169;-63
2024/04/15 07:37:49;;;;;;;4.68;4.13;;;;;;;26.79;33.18;100005.25;5420324;26;20637;-63
2024/04/15 07:40:15;;;;;;;10.23;4.00;;;;;;;26.96;32.70;100005.88;5421503;26;20004;-63
2024/04/15 07:42:41;;;;;;;5.60;3.97;;;;;;;26.93;32.45;100005.59;5419713;26;20500;-63
2024/04/15 07:45:07;;;;;;;4.20;3.40;;;;;;;27.02;32.79;100006.75;5422093;26;20003;-63
2024/04/15 07:47:34;;;;;;;5.15;4.20;;;;;;;27.23;31.95;100000.38;5419635;26;20110;-62
2024/04/15 07:50:00;;;;;;;4.05;3.65;;;;;;;27.26;31.14;99997.13;5422032;26;19995;-63
2024/04/15 07:52:26;;;;;;;8.93;3.97;;;;;;;27.26;31.75;99991.69;5420401;26;20024;-62
2024/04/15 07:54:52;;;;;;;5.80;3.35;;;;;;;27.24;31.61;99999.28;5421232;26;20002;-63
2024/04/15 07:57:18;;;;;;;6.32;3.65;;;;;;;27.53;30.88;99998.84;5419822;26;19991;-62
2024/04/15 07:59:46;;;;;;;5.63;3.55;;;;;;;27.54;29.97;99995.84;5420990;26;20002;-62
2024/04/15 08:02:11;;;;;;;7.03;3.42;;;;;;;27.61;30.25;99996.44;5420588;26;20003;-63
2024/04/15 08:04:37;;;;;;;4.70;3.25;;;;;;;27.63;30.57;99996.19;5419977;26;20104;-62
2024/04/15 08:07:04;;;;;;;4.18;3.40;;;;;;;27.79;30.04;99986.16;5419522;26;20269;-62
2024/04/15 08:09:30;;;;;;;8.18;3.30;;;;;;;27.83;30.53;99989.97;5420369;26;20042;-62
2024/04/15 08:11:56;;;;;;;5.18;2.80;;;;;;;27.87;28.45;99982.91;5420705;26;20355;-62
2024/04/15 08:14:22;;;;;;;41.88;6.95;;;;;;;27.94;28.75;99978.81;5420510;26;20097;-63
2024/04/15 08:16:49;;;;;;;4.18;3.15;;;;;;;27.88;29.30;99970.94;5420686;26;19992;-62
2024/04/15 08:19:15;;;;;;;10.77;4.05;;;;;;;27.98;29.16;99962.78;5418806;26;20000;-63
2024/04/15 08:21:41;;;;;;;5.88;2.90;;;;;;;28.11;28.78;99956.00;5420434;26;20114;-63
2024/04/15 08:24:07;;;;;;;2.85;2.58;;;;;;;28.26;29.31;99947.84;5418742;26;19994;-62
2024/04/15 08:26:33;;;;;;;5.38;3.40;;;;;;;28.33;28.88;99940.22;5420169;26;20006;-62
2024/04/15 08:29:02;;;;;;;3.47;2.83;;;;;;;28.43;27.86;99942.94;5418730;26;20003;-62
2024/04/15 08:31:29;;;;;;;5.07;2.38;;;;;;;28.59;27.63;99935.56;5420155;26;20000;-63
2024/04/15 08:33:55;;;;;;;2.60;2.10;;;;;;;28.69;27.60;99929.25;5420669;26;20003;-63
2024/04/15 08:36:21;;;;;;;4.78;2.58;;;;;;;28.63;27.62;99935.81;5420041;26;20256;-63
2024/04/15 08:38:47;;;;;;;4.18;3.10;;;;;;;27.95;27.58;99938.81;5419258;26;19992;-63
2024/04/15 08:41:29;;;;;;;16.02;4.47;;;;;;;27.75;28.02;99936.91;5418920;26;19991;-62
2024/04/15 08:44:03;;;;;;;4.40;2.70;;;;;;;27.63;27.80;99928.19;5420503;26;20002;-62
2024/04/15 08:46:42;;;;;;;3.58;2.90;;;;;;;27.71;28.02;99926.81;5421581;26;19996;-63
2024/04/15 08:49:08;;;;;;;5.50;3.35;;;;;;;27.83;28.28;99917.31;5420279;26;19991;-62
2024/04/15 08:51:35;;;;;;;4.07;2.72;;;;;;;27.61;28.54;99919.47;5419613;26;19999;-63
2024/04/15 08:54:01;;;;;;;4.25;3.08;;;;;;;27.45;29.90;99917.78;5420089;26;20003;-62
2024/04/15 08:56:31;;;;;;;3.13;2.83;;;;;;;27.35;29.27;99915.84;5419741;26;20161;-62
2024/04/15 08:58:58;;;;;;;3.70;3.03;;;;;;;27.19;30.31;99906.03;5420458;26;20471;-62
2024/04/15 09:01:24;;;;;;;4.28;2.70;;;;;;;27.26;31.27;99912.84;5423141;26;20039;-63
2024/04/15 09:03:50;;;;;;;2.80;2.60;;;;;;;27.36;30.52;99912.03;5424552;26;19992;-63
2024/04/15 09:06:16;;;;;;;6.32;3.03;;;;;;;27.55;29.33;99904.19;5421990;26;19995;-62
2024/04/15 09:08:43;;;;;;;4.07;2.58;;;;;;;27.57;30.51;99893.88;5424534;26;20011;-62
2024/04/15 09:11:09;;;;;;;3.70;2.92;;;;;;;27.77;30.70;99899.34;5421595;26;20057;-63
2024/04/15 09:13:35;;;;;;;5.07;2.90;;;;;;;27.80;30.91;99898.00;5424599;26;20006;-62
2024/04/15 09:16:01;;;;;;;3.75;3.10;;;;;;;27.77;31.03;99885.75;5422476;26;20031;-62
2024/04/15 09:18:27;;;;;;;5.47;2.97;;;;;;;27.87;30.94;99893.09;5423928;26;20006;-63
2024/04/15 09:20:54;;;;;;;4.68;2.58;;;;;;;27.70;29.76;99884.38;5422546;26;19988;-62
2024/04/15 09:23:20;;;;;;;3.70;2.78;;;;;;;27.61;31.84;99890.38;5423730;26;20007;-62
2024/04/15 09:25:47;;;;;;;3.00;2.47;;;;;;;27.28;30.39;99886.19;5423161;26;20003;-62
2024/04/15 09:28:13;;;;;;;3.72;3.10;;;;;;;27.32;30.15;99883.75;5422691;26;20011;-63
2024/04/15 09:30:39;;;;;;;4.07;2.70;;;;;;;27.18;30.50;99872.59;5423243;26;20014;-62
2024/04/15 09:33:09;;;;;;;3.88;2.60;;;;;;;27.18;30.21;99867.16;5422044;26;20013;-62
2024/04/15 09:35:38;;;;;;;4.03;2.90;;;;;;;27.10;31.03;99861.41;5423619;26;20011;-62
2024/04/15 09:38:06;;;;;;;10.23;3.42;;;;;;;26.79;30.69;99855.81;5421935;26;20106;-62
2024/04/15 09:40:34;;;;;;;3.85;2.58;;;;;;;26.78;30.76;99850.66;5422679;26;19999;-62
2024/04/15 09:43:00;;;;;;;3.90;2.30;;;;;;;26.75;29.53;99851.19;5422574;26;20003;-62
2024/04/15 09:45:28;;;;;;;2.90;2.20;;;;;;;26.78;27.93;99839.78;5423328;26;20007;-62
2024/04/15 09:47:54;;;;;;;4.13;2.58;;;;;;;26.86;30.80;99840.09;5424550;26;19995;-62
2024/04/15 09:50:21;;;;;;;4.68;2.65;;;;;;;26.82;32.14;99830.84;5423267;26;20214;-62
2024/04/15 09:52:58;;;;;;;2.95;2.70;;;;;;;26.76;31.98;99831.09;5420883;26;20011;-63
2024/04/15 09:55:35;;;;;;;13.05;3.17;;;;;;;26.75;30.49;99824.03;5422752;26;19999;-62
2024/04/15 09:58:04;;;;;;;3.10;2.80;;;;;;;26.78;31.16;99821.59;5423096;26;20018;-62
2024/04/15 10:00:31;;;;;;;3.85;2.30;;;;;;;26.70;30.23;99816.66;5422208;26;20006;-62
2024/04/15 10:03:14;;;;;;;3.83;2.20;;;;;;;26.76;27.87;99812.06;5422983;26;19995;-62
2024/04/15 10:05:41;;;;;;;5.93;2.50;;;;;;;26.88;30.48;99812.66;5421693;26;20067;-62
2024/04/15 10:08:08;;;;;;;4.47;2.33;;;;;;;26.83;30.21;99809.91;5422839;26;20015;-62
2024/04/15 10:10:35;;;;;;;23.38;5.30;;;;;;;26.81;30.35;99783.03;5422647;26;20272;-62
2024/04/15 10:13:04;;;;;;;3.85;2.38;;;;;;;27.00;31.89;99799.66;5421082;26;20203;-62
2024/04/15 10:15:30;;;;;;;7.55;3.05;;;;;;;26.93;31.78;99793.66;5419392;26;19992;-63
2024/04/15 10:18:03;;;;;;;4.35;2.28;;;;;;;26.91;31.32;99790.38;5423058;26;20456;-62
2024/04/15 10:20:39;;;;;;;5.93;2.92;;;;;;;26.95;32.61;99788.75;5420164;26;19991;-62
2024/04/15 10:23:24;;;;;;;4.00;2.50;;;;;;;27.02;31.29;99781.19;5422833;26;20031;-62
2024/04/15 10:25:51;;;;;;;4.18;2.67;;;;;;;27.09;30.76;99772.81;5420357;26;19992;-62
2024/04/15 10:28:19;;;;;;;4.32;2.20;;;;;;;27.10;31.58;99774.44;5422948;26;19995;-62
2024/04/15 10:30:48;;;;;;;5.35;2.53;;;;;;;27.10;30.29;99780.69;5421221;26;20221;-63
2024/04/15 10:33:19;;;;;;;4.03;2.10;;;;;;;27.09;29.12;99772.81;5423298;26;19995;-62
2024/04/15 10:35:52;;;;;;;3.35;2.22;;;;;;;27.07;28.62;99767.66;5421190;26;20010;-62
2024/04/15 10:38:18;;;;;;;3.03;2.20;;;;;;;27.35;30.21;99761.69;5422931;26;20006;-63
2024/04/15 10:40:46;;;;;;;3.08;2.10;;;;;;;27.42;29.19;99750.53;5422148;26;20004;-62
2024/04/15 10:43:14;;;;;;;2.63;2.05;;;;;;;27.45;29.71;99747.28;5422695;26;19991;-62
2024/04/15 10:45:41;;;;;;;3.95;2.05;;;;;;;27.45;29.90;99736.41;5421190;26;20118;-62
2024/04/15 10:48:07;;;;;;;3.80;2.40;;;;;;;27.49;27.66;99729.31;5422388;26;19992;-62
2024/04/15 10:50:34;;;;;;;4.82;2.55;;;;;;;27.56;29.08;99734.47;5422710;26;20009;-63
2024/04/15 10:53:00;;;;;;;3.13;2.17;;;;;;;27.54;28.29;99721.16;5422536;26;19993;-63
2024/04/15 10:55:27;;;;;;;3.38;1.92;;;;;;;27.54;28.12;99723.06;5421770;26;20019;-62
2024/04/15 10:57:53;;;;;;;2.50;1.88;;;;;;;27.68;27.82;99718.72;5419165;26;20007;-62
2024/04/15 11:00:22;;;;;;;4.43;2.10;;;;;;;27.71;28.00;99711.91;5422494;26;20005;-62
2024/04/15 11:02:53;;;;;;;3.25;2.10;;;;;;;27.71;28.05;99707.28;5421599;26;19995;-63
2024/04/15 11:05:21;;;;;;;4.40;2.35;;;;;;;27.67;26.50;99695.31;5422602;26;20087;-62
2024/04/15 11:07:47;;;;;;;2.55;2.10;;;;;;;27.74;27.82;99692.31;5420675;26;20002;-62
2024/04/15 11:10:15;;;;;;;2.22;1.98;;;;;;;27.85;27.10;99683.84;5422111;26;19995;-62
2024/04/15 11:12:41;;;;;;;2.60;2.40;;;;;;;27.86;26.76;99677.31;5420590;26;20007;-62
2024/04/15 11:15:12;;;;;;;5.03;2.35;;;;;;;28.04;25.17;99678.59;5422666;26;19999;-63
2024/04/15 11:17:53;;;;;;;2.88;1.98;;;;;;;28.04;25.82;99678.59;5419742;26;20027;-62
2024/04/15 11:20:21;;;;;;;3.35;2.50;;;;;;;28.03;26.60;99668.00;5421882;26;20146;-62
2024/04/15 11:22:47;;;;;;;2.80;2.20;;;;;;;28.03;26.65;99668.00;5419964;26;20003;-63
2024/04/15 11:25:14;;;;;;;3.15;2.08;;;;;;;28.17;25.53;99667.16;5422292;26;20007;-63